createdAt,value
2023-03-18T00:01:39.371Z,9.11
2023-03-18T00:03:41.322Z,9.11
2023-03-18T00:05:43.107Z,9.10
2023-03-18T00:07:44.978Z,9.10
2023-03-18T00:09:46.910Z,9.10
2023-03-18T00:11:48.834Z,9.10
2023-03-18T00:13:50.770Z,9.10
2023-03-18T00:15:52.709Z,9.09
2023-03-18T00:17:55.737Z,9.09
2023-03-18T00:19:57.345Z,9.08
2023-03-18T00:21:59.349Z,9.08
2023-03-18T00:24:00.961Z,9.07
2023-03-18T00:26:03.174Z,9.07
2023-03-18T00:28:06.805Z,9.07
2023-03-18T00:30:09.865Z,9.08
2023-03-18T00:32:11.434Z,9.07
2023-03-18T00:34:14.449Z,9.06
2023-03-18T00:36:16.936Z,9.06
2023-03-18T00:38:18.747Z,9.06
2023-03-18T00:40:20.767Z,9.07
2023-03-18T00:42:22.361Z,9.06
2023-03-18T00:44:25.137Z,9.06
2023-03-18T00:46:29.535Z,9.07
2023-03-18T00:48:31.377Z,9.07
2023-03-18T00:50:35.157Z,9.07
2023-03-18T00:52:37.225Z,9.06
2023-03-18T00:54:39.030Z,9.07
2023-03-18T00:56:40.778Z,9.07
2023-03-18T00:58:43.590Z,9.07
2023-03-18T01:00:46.337Z,9.07
2023-03-18T01:02:48.293Z,9.08
2023-03-18T01:04:54.878Z,9.08
2023-03-18T01:06:58.866Z,9.07
2023-03-18T01:09:01.026Z,9.06
2023-03-18T01:11:03.912Z,9.06
2023-03-18T01:13:08.163Z,9.08
2023-03-18T01:15:14.304Z,9.07
2023-03-18T01:17:16.140Z,9.07
2023-03-18T01:19:17.881Z,9.06
2023-03-18T01:21:20.208Z,9.06
2023-03-18T01:23:23.645Z,9.06
2023-03-18T01:25:25.144Z,9.05
2023-03-18T01:27:26.739Z,9.05
2023-03-18T01:29:28.320Z,9.05
2023-03-18T01:31:30.193Z,9.04
2023-03-18T01:33:32.531Z,9.04
2023-03-18T01:35:35.579Z,9.05
2023-03-18T01:37:37.415Z,9.05
2023-03-18T01:39:40.502Z,9.04
2023-03-18T01:41:42.260Z,9.04
2023-03-18T01:43:44.277Z,9.03
2023-03-18T01:45:49.066Z,9.03
2023-03-18T01:47:51.648Z,9.03
2023-03-18T01:49:53.651Z,9.02
2023-03-18T01:51:59.097Z,9.01
2023-03-18T01:54:05.728Z,9.03
2023-03-18T01:56:08.946Z,9.02
2023-03-18T01:58:17.969Z,9.03
2023-03-18T02:00:20.466Z,9.03
2023-03-18T02:02:22.517Z,9.03
2023-03-18T02:04:30.409Z,9.02
2023-03-18T02:06:33.542Z,9.03
2023-03-18T02:08:36.243Z,9.02
2023-03-18T02:10:39.048Z,9.02
2023-03-18T02:12:46.306Z,9.02
2023-03-18T02:14:48.866Z,9.02
2023-03-18T02:16:56.208Z,9.04
2023-03-18T02:19:02.610Z,9.03
2023-03-18T02:21:19.684Z,9.04
2023-03-18T02:23:29.796Z,9.04
2023-03-18T02:25:42.610Z,9.04
2023-03-18T02:27:48.792Z,9.03
2023-03-18T02:29:55.545Z,9.04
2023-03-18T02:31:57.314Z,9.04
2023-03-18T02:34:00.130Z,9.04
2023-03-18T02:36:05.116Z,9.04
2023-03-18T02:38:07.837Z,9.04
2023-03-18T02:40:14.916Z,9.05
2023-03-18T02:42:28.486Z,9.07
2023-03-18T02:44:33.388Z,9.05
2023-03-18T02:46:48.134Z,9.07
2023-03-18T02:48:50.655Z,9.06
2023-03-18T02:50:55.804Z,9.06
2023-03-18T02:52:57.676Z,9.06
2023-03-18T02:54:59.714Z,9.07
2023-03-18T02:57:05.034Z,9.07
2023-03-18T02:59:07.628Z,9.08
2023-03-18T03:01:13.233Z,9.08
2023-03-18T03:03:14.950Z,9.08
2023-03-18T03:05:17.282Z,9.08
2023-03-18T03:07:18.903Z,9.08
2023-03-18T03:09:21.521Z,9.08
2023-03-18T03:11:24.174Z,9.07
2023-03-18T03:13:26.006Z,9.08
2023-03-18T03:15:27.661Z,9.08
2023-03-18T03:17:30.722Z,9.08
2023-03-18T03:19:32.251Z,9.08
2023-03-18T03:21:34.573Z,9.06
2023-03-18T03:23:36.879Z,9.08
2023-03-18T03:25:39.170Z,9.07
2023-03-18T03:27:41.334Z,9.07
2023-03-18T03:29:44.757Z,9.08
2023-03-18T03:31:46.424Z,9.06
2023-03-18T03:33:49.841Z,9.07
2023-03-18T03:35:53.120Z,9.07
2023-03-18T03:37:54.814Z,9.07
2023-03-18T03:39:56.639Z,9.08
2023-03-18T03:41:58.493Z,9.06
2023-03-18T03:44:00.669Z,9.08
2023-03-18T03:46:04.113Z,9.07
2023-03-18T03:48:09.828Z,9.07
2023-03-18T03:50:13.922Z,9.07
2023-03-18T03:52:15.708Z,9.07
2023-03-18T03:54:17.533Z,9.07
2023-03-18T03:56:19.170Z,9.07
2023-03-18T03:58:21.263Z,9.05
2023-03-18T04:00:25.660Z,9.05
2023-03-18T04:02:27.912Z,9.05
2023-03-18T04:04:29.769Z,9.04
2023-03-18T04:06:32.981Z,9.03
2023-03-18T04:08:34.786Z,9.03
2023-03-18T04:10:36.332Z,9.01
2023-03-18T04:12:39.932Z,9.01
2023-03-18T04:14:42.250Z,9.01
2023-03-18T04:16:44.022Z,8.99
2023-03-18T04:18:45.654Z,8.99
2023-03-18T04:20:47.478Z,8.98
2023-03-18T04:22:51.319Z,8.97
2023-03-18T04:24:52.891Z,8.96
2023-03-18T04:26:54.461Z,8.94
2023-03-18T04:28:56.581Z,8.94
2023-03-18T04:30:58.465Z,8.94
2023-03-18T04:33:00.538Z,8.93
2023-03-18T04:35:02.184Z,8.93
2023-03-18T04:37:03.875Z,8.91
2023-03-18T04:39:07.244Z,8.91
2023-03-18T04:41:09.200Z,8.91
2023-03-18T04:43:11.097Z,8.91
2023-03-18T04:45:12.649Z,8.90
2023-03-18T04:47:14.317Z,8.90
2023-03-18T04:49:16.251Z,8.89
2023-03-18T04:51:17.835Z,8.88
2023-03-18T04:53:20.894Z,8.88
2023-03-18T04:55:26.078Z,8.88
2023-03-18T04:57:27.877Z,8.88
2023-03-18T04:59:29.997Z,8.87
2023-03-18T05:01:33.295Z,8.87
2023-03-18T05:03:35.627Z,8.87
2023-03-18T05:05:38.801Z,8.87
2023-03-18T05:07:41.213Z,8.86
2023-03-18T05:09:42.924Z,8.85
2023-03-18T05:11:46.352Z,8.85
2023-03-18T05:13:49.230Z,8.85
2023-03-18T05:15:51.548Z,8.85
2023-03-18T05:17:53.458Z,8.85
2023-03-18T05:19:55.068Z,8.84
2023-03-18T05:21:56.604Z,8.83
2023-03-18T05:23:58.618Z,8.83
2023-03-18T05:26:00.665Z,8.81
2023-03-18T05:28:03.912Z,8.78
2023-03-18T05:30:07.517Z,8.78
2023-03-18T05:32:10.210Z,8.77
2023-03-18T05:34:11.959Z,8.77
2023-03-18T05:36:13.853Z,8.76
2023-03-18T05:38:16.266Z,8.75
2023-03-18T05:40:17.995Z,8.74
2023-03-18T05:42:20.077Z,8.74
2023-03-18T05:44:23.524Z,8.73
2023-03-18T05:46:25.206Z,8.72
2023-03-18T05:48:27.103Z,8.71
2023-03-18T05:50:30.903Z,8.70
2023-03-18T05:52:32.804Z,8.70
2023-03-18T05:54:34.341Z,8.69
2023-03-18T05:56:36.091Z,8.70
2023-03-18T05:58:37.710Z,8.69
2023-03-18T06:00:41.244Z,8.69
2023-03-18T06:02:43.056Z,8.69
2023-03-18T06:04:44.706Z,8.68
2023-03-18T06:06:47.281Z,8.68
2023-03-18T06:08:48.927Z,8.68
2023-03-18T06:10:50.517Z,8.68
2023-03-18T06:12:53.353Z,8.68
2023-03-18T06:14:55.352Z,8.67
2023-03-18T06:17:01.765Z,8.66
2023-03-18T06:19:04.599Z,8.67
2023-03-18T06:21:10.006Z,8.68
2023-03-18T06:23:11.742Z,8.68
2023-03-18T06:25:14.275Z,8.68
2023-03-18T06:27:16.116Z,8.69
2023-03-18T06:29:17.666Z,8.71
2023-03-18T06:31:19.922Z,8.70
2023-03-18T06:33:23.119Z,8.72
2023-03-18T06:35:25.152Z,8.74
2023-03-18T06:37:26.789Z,8.75
2023-03-18T06:39:28.854Z,8.80
2023-03-18T06:41:30.724Z,8.86
2023-03-18T06:43:32.790Z,8.92
2023-03-18T06:45:36.313Z,9.00
2023-03-18T06:47:38.459Z,9.06
2023-03-18T06:49:42.521Z,9.13
2023-03-18T06:51:44.298Z,9.24
2023-03-18T06:53:45.939Z,9.33
2023-03-18T06:55:47.970Z,9.42
2023-03-18T06:57:49.682Z,9.54
2023-03-18T06:59:51.782Z,9.62
2023-03-18T07:01:54.889Z,9.72
2023-03-18T07:03:57.268Z,9.86
2023-03-18T07:06:00.754Z,9.96
2023-03-18T07:08:02.876Z,10.06
2023-03-18T07:10:06.184Z,10.17
2023-03-18T07:12:08.167Z,10.24
2023-03-18T07:14:10.507Z,10.30
2023-03-18T07:16:12.460Z,10.35
2023-03-18T07:18:14.653Z,10.42
2023-03-18T07:20:21.303Z,10.50
2023-03-18T07:22:24.355Z,10.62
2023-03-18T07:24:26.368Z,10.70
2023-03-18T07:26:28.171Z,10.77
2023-03-18T07:28:30.074Z,10.85
2023-03-18T07:30:32.241Z,10.91
2023-03-18T07:32:34.108Z,10.99
2023-03-18T07:34:36.259Z,11.07
2023-03-18T07:36:38.186Z,11.14
2023-03-18T07:38:41.406Z,11.25
2023-03-18T07:40:43.166Z,11.34
2023-03-18T07:42:44.783Z,11.46
2023-03-18T07:44:46.405Z,11.57
2023-03-18T07:46:48.348Z,11.69
2023-03-18T07:48:51.828Z,11.81
2023-03-18T07:50:53.483Z,11.88
2023-03-18T07:52:58.152Z,11.94
2023-03-18T07:55:01.578Z,12.01
2023-03-18T07:57:05.228Z,12.08
2023-03-18T07:59:06.874Z,12.11
2023-03-18T08:01:08.732Z,12.16
2023-03-18T08:03:12.229Z,12.20
2023-03-18T08:05:14.032Z,12.24
2023-03-18T08:07:16.195Z,12.27
2023-03-18T08:09:17.862Z,12.30
2023-03-18T08:11:21.382Z,12.34
2023-03-18T08:13:23.137Z,12.36
2023-03-18T08:15:26.391Z,12.38
2023-03-18T08:17:28.237Z,12.42
2023-03-18T08:19:32.360Z,12.43
2023-03-18T08:21:34.275Z,12.45
2023-03-18T08:23:39.993Z,12.47
2023-03-18T08:25:42.180Z,12.50
2023-03-18T08:27:45.561Z,12.52
2023-03-18T08:29:47.179Z,12.53
2023-03-18T08:31:48.901Z,12.56
2023-03-18T08:33:50.798Z,12.57
2023-03-18T08:35:53.071Z,12.59
2023-03-18T08:37:55.339Z,12.62
2023-03-18T08:39:57.770Z,12.64
2023-03-18T08:41:59.456Z,12.67
2023-03-18T08:44:03.610Z,12.69
2023-03-18T08:46:07.884Z,12.73
2023-03-18T08:48:09.963Z,12.77
2023-03-18T08:50:15.470Z,12.81
2023-03-18T08:52:17.202Z,12.84
2023-03-18T08:54:19.015Z,12.87
2023-03-18T08:56:21.296Z,12.89
2023-03-18T08:58:23.110Z,12.91
2023-03-18T09:00:27.149Z,12.94
2023-03-18T09:02:28.781Z,12.94
2023-03-18T09:04:30.363Z,12.97
2023-03-18T09:06:32.376Z,12.99
2023-03-18T09:08:34.312Z,13.01
2023-03-18T09:10:36.013Z,13.04
2023-03-18T09:12:37.911Z,13.08
2023-03-18T09:14:40.075Z,13.12
2023-03-18T09:16:43.130Z,13.17
2023-03-18T09:18:47.080Z,13.21
2023-03-18T09:20:50.642Z,13.25
2023-03-18T09:22:52.470Z,13.27
2023-03-18T09:24:54.290Z,13.30
2023-03-18T09:26:56.398Z,13.33
2023-03-18T09:28:57.881Z,13.36
2023-03-18T09:31:01.007Z,13.39
2023-03-18T09:33:04.770Z,13.43
2023-03-18T09:35:07.643Z,13.45
2023-03-18T09:37:09.297Z,13.49
2023-03-18T09:39:12.583Z,13.52
2023-03-18T09:41:38.505Z,13.58
2023-03-18T09:43:52.788Z,13.58
2023-03-18T09:46:02.915Z,13.59
2023-03-18T09:48:40.612Z,13.66
2023-03-18T09:50:50.952Z,13.67
2023-03-18T09:52:56.901Z,13.69
2023-03-18T09:55:05.445Z,13.74
2023-03-18T09:57:15.686Z,13.80
2023-03-18T09:59:22.252Z,13.83
2023-03-18T10:01:28.431Z,13.89
2023-03-18T10:03:40.108Z,13.96
2023-03-18T10:05:49.137Z,14.03
2023-03-18T10:07:55.362Z,14.12
2023-03-18T10:10:02.864Z,14.18
2023-03-18T10:12:15.503Z,14.26
2023-03-18T10:14:28.705Z,14.37
2023-03-18T10:16:37.048Z,14.41
2023-03-18T10:18:44.311Z,14.49
2023-03-18T10:21:03.612Z,14.56
2023-03-18T10:23:17.197Z,14.61
2023-03-18T10:25:26.995Z,14.67
2023-03-18T10:27:45.731Z,14.75
2023-03-18T10:29:52.593Z,14.79
2023-03-18T10:32:11.807Z,14.86
2023-03-18T10:34:21.898Z,14.97
2023-03-18T10:36:32.236Z,15.13
2023-03-18T10:38:36.617Z,15.32
2023-03-18T10:40:41.461Z,15.46
2023-03-18T10:42:44.184Z,15.65
2023-03-18T10:44:46.758Z,15.83
2023-03-18T10:46:56.764Z,16.02
2023-03-18T10:49:05.910Z,16.18
2023-03-18T10:51:16.855Z,16.35
2023-03-18T10:53:23.964Z,16.51
2023-03-18T10:55:31.289Z,16.68
2023-03-18T10:57:32.874Z,16.84
2023-03-18T10:59:34.881Z,17.00
2023-03-18T11:01:38.815Z,17.14
2023-03-18T11:03:45.488Z,17.27
2023-03-18T11:05:48.199Z,17.38
2023-03-18T11:08:00.504Z,17.41
2023-03-18T11:10:13.935Z,17.46
2023-03-18T11:12:19.355Z,17.50
2023-03-18T11:14:22.842Z,17.48
2023-03-18T11:16:30.157Z,17.52
2023-03-18T11:18:31.756Z,17.53
2023-03-18T11:20:37.033Z,17.66
2023-03-18T11:22:45.421Z,17.79
2023-03-18T11:25:01.957Z,17.88
2023-03-18T11:27:04.109Z,17.97
2023-03-18T11:29:12.641Z,18.06
2023-03-18T11:31:18.472Z,18.14
2023-03-18T11:33:25.602Z,18.24
2023-03-18T11:35:36.247Z,18.32
2023-03-18T11:37:40.758Z,18.35
2023-03-18T11:39:42.447Z,18.41
2023-03-18T11:41:47.791Z,18.53
2023-03-18T11:43:59.585Z,18.65
2023-03-18T11:46:04.923Z,18.75
2023-03-18T11:48:14.766Z,18.90
2023-03-18T11:50:21.973Z,18.99
2023-03-18T11:52:36.852Z,19.12
2023-03-18T11:55:02.317Z,19.28
2023-03-18T11:57:11.893Z,19.37
2023-03-18T11:59:30.329Z,19.48
2023-03-18T12:01:42.776Z,19.59
2023-03-18T12:04:14.252Z,19.64
2023-03-18T12:06:21.104Z,19.63
2023-03-18T12:08:33.535Z,19.61
2023-03-18T12:10:39.576Z,19.59
2023-03-18T12:12:54.792Z,19.61
2023-03-18T12:15:05.257Z,19.59
2023-03-18T12:17:20.048Z,19.67
2023-03-18T12:20:10.035Z,19.73
2023-03-18T12:22:31.968Z,19.72
2023-03-18T12:24:55.900Z,19.72
2023-03-18T12:27:03.224Z,19.67
2023-03-18T12:29:29.151Z,19.70
2023-03-18T12:31:49.709Z,19.71
2023-03-18T12:33:55.280Z,19.74
2023-03-18T12:36:08.953Z,19.81
2023-03-18T12:38:42.134Z,19.95
2023-03-18T12:40:56.628Z,20.03
2023-03-18T12:43:20.956Z,20.13
2023-03-18T12:45:28.446Z,20.23
2023-03-18T12:47:37.356Z,20.24
2023-03-18T12:49:45.771Z,20.33
2023-03-18T12:51:54.275Z,20.37
2023-03-18T12:54:03.537Z,20.44
2023-03-18T12:56:11.716Z,20.53
2023-03-18T12:58:17.895Z,20.54
2023-03-18T13:00:24.655Z,20.49
2023-03-18T13:02:41.776Z,20.49
2023-03-18T13:04:53.732Z,20.41
2023-03-18T13:07:03.204Z,20.36
2023-03-18T13:09:13.007Z,20.32
2023-03-18T13:11:32.244Z,20.29
2023-03-18T13:13:36.900Z,20.23
2023-03-18T13:15:41.926Z,20.21
2023-03-18T13:17:48.403Z,20.19
2023-03-18T13:19:50.250Z,20.14
2023-03-18T13:22:02.864Z,20.11
2023-03-18T13:24:25.393Z,20.10
2023-03-18T13:26:43.685Z,20.05
2023-03-18T13:28:57.795Z,20.01
2023-03-18T13:31:10.317Z,19.97
2023-03-18T13:33:34.674Z,19.93
2023-03-18T13:36:02.113Z,19.88
2023-03-18T13:38:21.492Z,19.83
2023-03-18T13:40:37.452Z,19.77
2023-03-18T13:42:41.784Z,19.72
2023-03-18T13:44:47.638Z,19.66
2023-03-18T13:46:57.785Z,19.62
2023-03-18T13:49:02.609Z,19.57
2023-03-18T13:51:20.090Z,19.53
2023-03-18T13:53:28.278Z,19.46
2023-03-18T13:55:33.812Z,19.44
2023-03-18T13:57:54.849Z,19.42
2023-03-18T14:00:23.019Z,19.43
2023-03-18T14:02:33.462Z,19.48
2023-03-18T14:04:47.723Z,19.56
2023-03-18T14:06:54.555Z,19.54
2023-03-18T14:08:56.845Z,19.52
2023-03-18T14:11:47.612Z,19.55
2023-03-18T14:13:51.116Z,19.57
2023-03-18T14:15:57.630Z,19.54
2023-03-18T14:18:00.384Z,19.51
2023-03-18T14:20:12.949Z,19.49
2023-03-18T14:22:22.098Z,19.45
2023-03-18T14:24:25.901Z,19.40
2023-03-18T14:26:27.814Z,19.36
2023-03-18T14:28:37.322Z,19.31
2023-03-18T14:31:03.321Z,19.27
2023-03-18T14:33:28.711Z,19.21
2023-03-18T14:35:35.166Z,19.16
2023-03-18T14:37:58.986Z,19.12
2023-03-18T14:40:05.801Z,19.05
2023-03-18T14:42:26.042Z,19.01
2023-03-18T14:44:36.225Z,18.96
2023-03-18T14:46:42.295Z,18.91
2023-03-18T14:48:44.113Z,18.85
2023-03-18T14:50:49.901Z,18.83
2023-03-18T14:52:58.526Z,18.82
2023-03-18T14:55:05.481Z,18.80
2023-03-18T14:57:07.681Z,18.80
2023-03-18T14:59:15.055Z,18.79
2023-03-18T15:01:17.153Z,18.80
2023-03-18T15:03:22.714Z,18.81
2023-03-18T15:05:26.731Z,18.79
2023-03-18T15:07:34.175Z,18.79
2023-03-18T15:09:36.313Z,18.76
2023-03-18T15:11:41.619Z,18.75
2023-03-18T15:13:43.708Z,18.73
2023-03-18T15:15:45.408Z,18.70
2023-03-18T15:17:48.742Z,18.68
2023-03-18T15:19:50.400Z,18.66
2023-03-18T15:21:52.387Z,18.64
2023-03-18T15:23:59.433Z,18.65
2023-03-18T15:26:02.767Z,18.64
2023-03-18T15:28:06.122Z,18.63
2023-03-18T15:30:25.136Z,18.67
2023-03-18T15:32:29.545Z,18.66
2023-03-18T15:34:31.849Z,18.65
2023-03-18T15:36:40.840Z,18.65
2023-03-18T15:38:47.003Z,18.63
2023-03-18T15:40:52.502Z,18.64
2023-03-18T15:42:56.177Z,18.63
2023-03-18T15:45:01.081Z,18.61
2023-03-18T15:47:13.172Z,18.60
2023-03-18T15:49:15.876Z,18.58
2023-03-18T15:51:25.351Z,18.56
2023-03-18T15:53:28.722Z,18.53
2023-03-18T15:55:34.110Z,18.49
2023-03-18T15:57:39.751Z,18.47
2023-03-18T15:59:44.402Z,18.43
2023-03-18T16:01:46.304Z,18.39
2023-03-18T16:03:47.854Z,18.34
2023-03-18T16:05:51.724Z,18.32
2023-03-18T16:07:54.319Z,18.29
2023-03-18T16:09:56.168Z,18.27
2023-03-18T16:12:01.136Z,18.23
2023-03-18T16:14:04.331Z,18.19
2023-03-18T16:16:09.168Z,18.16
2023-03-18T16:18:11.045Z,18.13
2023-03-18T16:20:17.569Z,18.10
2023-03-18T16:22:19.592Z,18.06
2023-03-18T16:24:21.219Z,18.02
2023-03-18T16:26:22.859Z,17.98
2023-03-18T16:28:26.674Z,17.94
2023-03-18T16:30:31.791Z,17.91
2023-03-18T16:32:33.502Z,17.88
2023-03-18T16:34:35.108Z,17.84
2023-03-18T16:36:36.715Z,17.80
2023-03-18T16:38:39.129Z,17.77
2023-03-18T16:40:45.483Z,17.74
2023-03-18T16:42:48.011Z,17.69
2023-03-18T16:44:50.178Z,17.67
2023-03-18T16:46:55.591Z,17.63
2023-03-18T16:48:58.658Z,17.59
2023-03-18T16:51:02.797Z,17.55
2023-03-18T16:53:13.313Z,17.53
2023-03-18T16:55:17.440Z,17.49
2023-03-18T16:57:21.715Z,17.45
2023-03-18T16:59:24.521Z,17.44
2023-03-18T17:01:28.566Z,17.39
2023-03-18T17:03:32.834Z,17.36
2023-03-18T17:05:34.933Z,17.33
2023-03-18T17:07:37.040Z,17.29
2023-03-18T17:09:38.914Z,17.26
2023-03-18T17:11:41.695Z,17.22
2023-03-18T17:13:43.551Z,17.20
2023-03-18T17:15:45.309Z,17.17
2023-03-18T17:17:54.647Z,17.12
2023-03-18T17:19:58.031Z,17.08
2023-03-18T17:21:59.544Z,17.01
2023-03-18T17:24:01.149Z,16.94
2023-03-18T17:26:03.231Z,16.87
2023-03-18T17:28:06.994Z,16.82
2023-03-18T17:30:17.110Z,16.77
2023-03-18T17:32:19.729Z,16.69
2023-03-18T17:34:22.198Z,16.64
2023-03-18T17:36:25.295Z,16.58
2023-03-18T17:38:27.117Z,16.52
2023-03-18T17:40:30.369Z,16.45
2023-03-18T17:42:34.221Z,16.40
2023-03-18T17:44:35.866Z,16.33
2023-03-18T17:46:37.768Z,16.27
2023-03-18T17:48:40.114Z,16.21
2023-03-18T17:50:42.657Z,16.16
2023-03-18T17:52:48.514Z,16.12
2023-03-18T17:54:50.172Z,16.05
2023-03-18T17:56:52.120Z,16.00
2023-03-18T17:58:55.344Z,15.96
2023-03-18T18:01:02.957Z,15.89
2023-03-18T18:03:06.876Z,15.84
2023-03-18T18:05:13.686Z,15.79
2023-03-18T18:07:17.678Z,15.73
2023-03-18T18:09:21.482Z,15.69
2023-03-18T18:11:26.099Z,15.63
2023-03-18T18:13:31.038Z,15.57
2023-03-18T18:15:33.202Z,15.52
2023-03-18T18:17:34.946Z,15.47
2023-03-18T18:19:38.996Z,15.40
2023-03-18T18:21:42.357Z,15.34
2023-03-18T18:23:46.529Z,15.26
2023-03-18T18:25:49.478Z,15.21
2023-03-18T18:27:51.268Z,15.16
2023-03-18T18:29:54.321Z,15.11
2023-03-18T18:31:56.335Z,15.07
2023-03-18T18:33:58.090Z,15.04
2023-03-18T18:36:00.674Z,14.97
2023-03-18T18:38:02.371Z,14.93
2023-03-18T18:40:05.274Z,14.88
2023-03-18T18:42:08.483Z,14.82
2023-03-18T18:44:10.129Z,14.76
2023-03-18T18:46:13.430Z,14.71
2023-03-18T18:48:17.329Z,14.65
2023-03-18T18:50:21.037Z,14.60
2023-03-18T18:52:22.894Z,14.55
2023-03-18T18:54:25.378Z,14.49
2023-03-18T18:56:32.750Z,14.45
2023-03-18T18:58:37.568Z,14.40
2023-03-18T19:00:39.399Z,14.35
2023-03-18T19:02:41.070Z,14.29
2023-03-18T19:04:42.670Z,14.24
2023-03-18T19:06:45.096Z,14.20
2023-03-18T19:08:47.119Z,14.14
2023-03-18T19:10:49.127Z,14.10
2023-03-18T19:12:50.949Z,14.05
2023-03-18T19:14:55.367Z,13.99
2023-03-18T19:16:58.940Z,13.93
2023-03-18T19:19:01.198Z,13.90
2023-03-18T19:21:02.816Z,13.83
2023-03-18T19:23:13.215Z,13.79
2023-03-18T19:25:14.955Z,13.73
2023-03-18T19:27:21.761Z,13.68
2023-03-18T19:29:25.496Z,13.63
2023-03-18T19:31:31.248Z,13.57
2023-03-18T19:33:33.059Z,13.52
2023-03-18T19:35:35.256Z,13.46
2023-03-18T19:37:41.572Z,13.41
2023-03-18T19:39:44.899Z,13.34
2023-03-18T19:41:47.190Z,13.28
2023-03-18T19:43:49.531Z,13.22
2023-03-18T19:45:52.866Z,13.15
2023-03-18T19:47:56.001Z,13.09
2023-03-18T19:49:57.761Z,13.03
2023-03-18T19:52:01.969Z,12.97
2023-03-18T19:54:25.035Z,12.95
2023-03-18T19:56:35.961Z,12.88
2023-03-18T19:58:38.299Z,12.84
2023-03-18T20:00:40.266Z,12.80
2023-03-18T20:02:43.293Z,12.75
2023-03-18T20:04:46.837Z,12.72
2023-03-18T20:06:48.753Z,12.68
2023-03-18T20:08:51.554Z,12.65
2023-03-18T20:10:55.615Z,12.61
2023-03-18T20:13:03.942Z,12.57
2023-03-18T20:15:13.587Z,12.52
2023-03-18T20:17:29.879Z,12.49
2023-03-18T20:19:31.632Z,12.46
2023-03-18T20:21:34.738Z,12.42
2023-03-18T20:23:37.078Z,12.39
2023-03-18T20:25:42.299Z,12.37
2023-03-18T20:27:44.341Z,12.36
2023-03-18T20:29:47.754Z,12.33
2023-03-18T20:31:49.861Z,12.30
2023-03-18T20:33:51.494Z,12.26
2023-03-18T20:35:54.387Z,12.21
2023-03-18T20:38:00.374Z,12.17
2023-03-18T20:40:03.405Z,12.12
2023-03-18T20:42:05.465Z,12.08
2023-03-18T20:44:12.649Z,12.04
2023-03-18T20:46:15.172Z,11.99
2023-03-18T20:48:17.196Z,11.97
2023-03-18T20:50:22.029Z,11.92
2023-03-18T20:52:27.852Z,11.88
2023-03-18T20:54:32.153Z,11.86
2023-03-18T20:56:34.236Z,11.84
2023-03-18T20:58:37.978Z,11.80
2023-03-18T21:00:39.800Z,11.79
2023-03-18T21:02:41.392Z,11.77
2023-03-18T21:04:42.983Z,11.75
2023-03-18T21:06:44.941Z,11.72
2023-03-18T21:08:46.595Z,11.69
2023-03-18T21:10:50.129Z,11.68
2023-03-18T21:12:52.596Z,11.64
2023-03-18T21:14:54.621Z,11.61
2023-03-18T21:16:56.429Z,11.60
2023-03-18T21:18:58.705Z,11.56
2023-03-18T21:21:00.583Z,11.54
2023-03-18T21:23:02.577Z,11.51
2023-03-18T21:25:07.112Z,11.49
2023-03-18T21:27:17.452Z,11.49
2023-03-18T21:29:20.042Z,11.45
2023-03-18T21:31:25.723Z,11.42
2023-03-18T21:33:29.901Z,11.36
2023-03-18T21:35:32.406Z,11.32
2023-03-18T21:37:34.946Z,11.27
2023-03-18T21:39:37.821Z,11.23
2023-03-18T21:41:40.865Z,11.19
2023-03-18T21:43:44.971Z,11.16
2023-03-18T21:45:46.680Z,11.12
2023-03-18T21:47:48.847Z,11.06
2023-03-18T21:49:50.650Z,11.01
2023-03-18T21:51:52.391Z,10.96
2023-03-18T21:53:53.949Z,10.90
2023-03-18T21:55:56.009Z,10.85
2023-03-18T21:57:57.861Z,10.82
2023-03-18T22:00:00.950Z,10.78
2023-03-18T22:02:02.625Z,10.74
2023-03-18T22:04:04.648Z,10.70
2023-03-18T22:06:09.175Z,10.66
2023-03-18T22:08:10.786Z,10.64
2023-03-18T22:10:16.068Z,10.61
2023-03-18T22:12:21.919Z,10.56
2023-03-18T22:14:23.544Z,10.52
2023-03-18T22:16:27.011Z,10.49
2023-03-18T22:18:28.620Z,10.45
2023-03-18T22:20:30.497Z,10.41
2023-03-18T22:22:36.055Z,10.37
2023-03-18T22:24:38.016Z,10.33
2023-03-18T22:26:40.066Z,10.29
2023-03-18T22:28:41.714Z,10.22
2023-03-18T22:30:45.336Z,10.16
2023-03-18T22:32:48.877Z,10.10
2023-03-18T22:34:50.630Z,10.03
2023-03-18T22:36:52.585Z,9.98
2023-03-18T22:38:54.394Z,9.94
2023-03-18T22:40:57.501Z,9.91
2023-03-18T22:43:01.027Z,9.86
2023-03-18T22:45:03.086Z,9.83
2023-03-18T22:47:05.349Z,9.80
2023-03-18T22:49:08.573Z,9.76
2023-03-18T22:51:20.118Z,9.75
2023-03-18T22:53:25.447Z,9.71
2023-03-18T22:55:32.177Z,9.68
2023-03-18T22:57:34.135Z,9.65
2023-03-18T22:59:35.949Z,9.63
2023-03-18T23:01:37.843Z,9.59
2023-03-18T23:03:39.513Z,9.57
2023-03-18T23:05:42.628Z,9.53
2023-03-18T23:07:44.434Z,9.49
2023-03-18T23:09:56.223Z,9.47
2023-03-18T23:11:58.672Z,9.45
2023-03-18T23:14:01.951Z,9.42
2023-03-18T23:16:04.955Z,9.39
2023-03-18T23:18:09.532Z,9.37
2023-03-18T23:20:14.148Z,9.35
2023-03-18T23:22:22.810Z,9.32
2023-03-18T23:24:24.619Z,9.27
2023-03-18T23:26:26.214Z,9.25
2023-03-18T23:28:28.132Z,9.22
2023-03-18T23:30:30.551Z,9.19
2023-03-18T23:32:32.648Z,9.16
2023-03-18T23:34:34.272Z,9.12
2023-03-18T23:36:35.916Z,9.07
2023-03-18T23:38:39.304Z,9.01
2023-03-18T23:40:42.459Z,8.95
2023-03-18T23:42:44.462Z,8.91
2023-03-18T23:44:46.581Z,8.86
2023-03-18T23:46:48.678Z,8.81
2023-03-18T23:48:51.076Z,8.76
2023-03-18T23:50:52.973Z,8.74
2023-03-18T23:52:54.834Z,8.70
2023-03-18T23:54:58.549Z,8.66
2023-03-18T23:57:00.315Z,8.63
2023-03-18T23:59:03.088Z,8.62
